sensor_id;sensor_type;location;lat;lon;timestamp;pressure;altitude;pressure_sealevel;temperature;humidity
77360;BME280;66426;51.454;7.266;2022-12-31T00:00:19;98986.19;;;12.06;84.61
77360;BME280;66426;51.454;7.266;2022-12-31T00:01:23;98994.03;;;11.98;84.61
77360;BME280;66426;51.454;7.266;2022-12-31T00:02:24;98994.03;;;11.98;84.86
77360;BME280;66426;51.454;7.266;2022-12-31T00:03:25;98990.84;;;12.04;84.18
77360;BME280;66426;51.454;7.266;2022-12-31T00:04:26;98991.84;;;12.03;84.51
77360;BME280;66426;51.454;7.266;2022-12-31T00:05:29;98980.63;;;11.97;84.54
77360;BME280;66426;51.454;7.266;2022-12-31T00:06:32;98983.56;;;11.94;84.62
77360;BME280;66426;51.454;7.266;2022-12-31T00:07:33;98984.09;;;11.99;84.46
77360;BME280;66426;51.454;7.266;2022-12-31T00:08:34;98988.72;;;11.97;85.12
77360;BME280;66426;51.454;7.266;2022-12-31T00:09:35;98987.63;;;11.99;84.63
77360;BME280;66426;51.454;7.266;2022-12-31T00:10:36;98988.81;;;11.95;84.96
77360;BME280;66426;51.454;7.266;2022-12-31T00:11:41;98974.75;;;12.03;84.80
77360;BME280;66426;51.454;7.266;2022-12-31T00:12:41;98986.03;;;11.97;85.12
77360;BME280;66426;51.454;7.266;2022-12-31T00:13:43;98982.34;;;11.98;85.20
77360;BME280;66426;51.454;7.266;2022-12-31T00:14:47;98987.88;;;11.96;85.60
77360;BME280;66426;51.454;7.266;2022-12-31T00:15:48;98992.09;;;11.87;85.60
77360;BME280;66426;51.454;7.266;2022-12-31T00:16:49;98972.88;;;11.92;85.35
77360;BME280;66426;51.454;7.266;2022-12-31T00:17:50;98983.56;;;11.94;85.73
77360;BME280;66426;51.454;7.266;2022-12-31T00:18:57;98989.41;;;11.87;86.01
77360;BME280;66426;51.454;7.266;2022-12-31T00:20:01;98984.88;;;11.88;86.18
77360;BME280;66426;51.454;7.266;2022-12-31T00:21:06;98982.50;;;11.83;86.26
77360;BME280;66426;51.454;7.266;2022-12-31T00:22:07;98982.06;;;11.90;86.13
77360;BME280;66426;51.454;7.266;2022-12-31T00:23:09;98984.00;;;11.87;85.69
77360;BME280;66426;51.454;7.266;2022-12-31T00:24:10;98993.94;;;11.87;86.29
77360;BME280;66426;51.454;7.266;2022-12-31T00:25:12;98993.72;;;11.90;85.99
77360;BME280;66426;51.454;7.266;2022-12-31T00:26:15;99001.50;;;11.82;86.37
77360;BME280;66426;51.454;7.266;2022-12-31T00:27:16;99000.88;;;11.78;86.74
77360;BME280;66426;51.454;7.266;2022-12-31T00:28:17;98999.41;;;11.85;86.52
77360;BME280;66426;51.454;7.266;2022-12-31T00:29:18;99007.22;;;11.90;86.51
77360;BME280;66426;51.454;7.266;2022-12-31T00:30:20;99006.47;;;11.88;86.64
77360;BME280;66426;51.454;7.266;2022-12-31T00:31:23;99004.50;;;11.90;86.67
77360;BME280;66426;51.454;7.266;2022-12-31T00:32:24;99017.59;;;11.83;87.34
77360;BME280;66426;51.454;7.266;2022-12-31T00:33:25;98998.28;;;11.77;87.51
77360;BME280;66426;51.454;7.266;2022-12-31T00:34:26;98992.13;;;11.75;87.57
77360;BME280;66426;51.454;7.266;2022-12-31T00:35:27;98977.88;;;11.73;87.10
77360;BME280;66426;51.454;7.266;2022-12-31T00:36:30;98985.13;;;11.72;87.22
77360;BME280;66426;51.454;7.266;2022-12-31T00:37:32;98981.06;;;11.66;87.54
77360;BME280;66426;51.454;7.266;2022-12-31T00:38:33;98998.56;;;11.61;87.88
77360;BME280;66426;51.454;7.266;2022-12-31T00:39:33;98994.41;;;11.68;87.28
77360;BME280;66426;51.454;7.266;2022-12-31T00:40:34;98997.09;;;11.68;87.07
77360;BME280;66426;51.454;7.266;2022-12-31T00:41:36;98988.28;;;11.66;87.23
77360;BME280;66426;51.454;7.266;2022-12-31T00:42:36;98994.88;;;11.62;87.49
77360;BME280;66426;51.454;7.266;2022-12-31T00:43:38;98995.09;;;11.59;88.42
77360;BME280;66426;51.454;7.266;2022-12-31T00:44:39;98988.66;;;11.49;88.79
77360;BME280;66426;51.454;7.266;2022-12-31T00:45:41;98994.81;;;11.51;88.71
77360;BME280;66426;51.454;7.266;2022-12-31T00:46:42;98989.53;;;11.49;88.73
77360;BME280;66426;51.454;7.266;2022-12-31T00:47:44;98992.66;;;11.56;88.93
77360;BME280;66426;51.454;7.266;2022-12-31T00:48:45;98992.50;;;11.57;89.14
77360;BME280;66426;51.454;7.266;2022-12-31T00:49:45;98984.88;;;11.51;89.42
77360;BME280;66426;51.454;7.266;2022-12-31T00:50:46;98988.22;;;11.55;89.78
77360;BME280;66426;51.454;7.266;2022-12-31T00:51:47;98989.19;;;11.54;89.93
77360;BME280;66426;51.454;7.266;2022-12-31T00:52:48;98992.84;;;11.53;89.59
77360;BME280;66426;51.454;7.266;2022-12-31T00:53:49;98991.25;;;11.50;89.90
77360;BME280;66426;51.454;7.266;2022-12-31T00:54:50;98988.88;;;11.45;89.93
77360;BME280;66426;51.454;7.266;2022-12-31T00:55:51;98986.16;;;11.45;89.91
77360;BME280;66426;51.454;7.266;2022-12-31T00:56:58;98991.38;;;11.49;89.75
77360;BME280;66426;51.454;7.266;2022-12-31T00:57:59;98972.50;;;11.49;89.54
77360;BME280;66426;51.454;7.266;2022-12-31T00:59:00;98973.34;;;11.49;89.77
77360;BME280;66426;51.454;7.266;2022-12-31T01:00:01;98972.59;;;11.47;90.14
77360;BME280;66426;51.454;7.266;2022-12-31T01:01:08;98974.44;;;11.47;90.25
77360;BME280;66426;51.454;7.266;2022-12-31T01:02:09;98964.59;;;11.45;89.95
77360;BME280;66426;51.454;7.266;2022-12-31T01:03:10;98962.56;;;11.49;90.33
77360;BME280;66426;51.454;7.266;2022-12-31T01:04:13;98967.19;;;11.47;90.14
77360;BME280;66426;51.454;7.266;2022-12-31T01:05:14;98957.78;;;11.53;89.96
77360;BME280;66426;51.454;7.266;2022-12-31T01:06:16;98955.31;;;11.50;90.37
77360;BME280;66426;51.454;7.266;2022-12-31T01:07:17;98950.78;;;11.50;90.04
77360;BME280;66426;51.454;7.266;2022-12-31T01:08:17;98949.41;;;11.44;90.02
77360;BME280;66426;51.454;7.266;2022-12-31T01:09:18;98949.06;;;11.49;89.88
77360;BME280;66426;51.454;7.266;2022-12-31T01:10:20;98949.06;;;11.49;90.05
77360;BME280;66426;51.454;7.266;2022-12-31T01:11:40;98934.16;;;11.56;89.30
77360;BME280;66426;51.454;7.266;2022-12-31T01:12:41;98933.50;;;11.53;89.75
77360;BME280;66426;51.454;7.266;2022-12-31T01:13:42;98939.78;;;11.53;89.27
77360;BME280;66426;51.454;7.266;2022-12-31T01:14:43;98939.84;;;11.64;88.83
77360;BME280;66426;51.454;7.266;2022-12-31T01:15:44;98929.03;;;11.64;88.82
77360;BME280;66426;51.454;7.266;2022-12-31T01:16:47;98935.53;;;11.62;88.62
77360;BME280;66426;51.454;7.266;2022-12-31T01:17:49;98930.03;;;11.63;88.74
77360;BME280;66426;51.454;7.266;2022-12-31T01:18:50;98920.59;;;11.69;88.34
77360;BME280;66426;51.454;7.266;2022-12-31T01:19:51;98934.34;;;11.66;88.55
77360;BME280;66426;51.454;7.266;2022-12-31T01:20:52;98935.19;;;11.66;88.15
77360;BME280;66426;51.454;7.266;2022-12-31T01:21:53;98937.41;;;11.73;88.01
77360;BME280;66426;51.454;7.266;2022-12-31T01:22:55;98929.31;;;11.73;87.62
77360;BME280;66426;51.454;7.266;2022-12-31T01:23:56;98924.91;;;11.72;87.51
77360;BME280;66426;51.454;7.266;2022-12-31T01:24:57;98922.63;;;11.78;87.46
77360;BME280;66426;51.454;7.266;2022-12-31T01:25:59;98934.28;;;11.79;87.33
77360;BME280;66426;51.454;7.266;2022-12-31T01:27:01;98920.66;;;11.80;87.39
77360;BME280;66426;51.454;7.266;2022-12-31T01:28:02;98927.53;;;11.84;87.37
77360;BME280;66426;51.454;7.266;2022-12-31T01:29:03;98929.19;;;11.87;86.75
77360;BME280;66426;51.454;7.266;2022-12-31T01:30:05;98918.91;;;11.92;86.30
77360;BME280;66426;51.454;7.266;2022-12-31T01:31:09;98919.31;;;11.99;86.34
77360;BME280;66426;51.454;7.266;2022-12-31T01:32:11;98924.09;;;12.06;85.90
77360;BME280;66426;51.454;7.266;2022-12-31T01:33:12;98916.41;;;12.13;85.56
77360;BME280;66426;51.454;7.266;2022-12-31T01:34:13;98924.97;;;12.07;85.62
77360;BME280;66426;51.454;7.266;2022-12-31T01:35:14;98917.34;;;12.01;86.07
77360;BME280;66426;51.454;7.266;2022-12-31T01:36:16;98918.94;;;12.03;86.03
77360;BME280;66426;51.454;7.266;2022-12-31T01:37:18;98931.84;;;12.11;86.02
77360;BME280;66426;51.454;7.266;2022-12-31T01:38:19;98929.66;;;12.16;85.46
77360;BME280;66426;51.454;7.266;2022-12-31T01:39:19;98931.28;;;12.19;85.58
77360;BME280;66426;51.454;7.266;2022-12-31T01:40:20;98916.66;;;12.21;85.68
77360;BME280;66426;51.454;7.266;2022-12-31T01:41:24;98929.94;;;12.24;85.64
77360;BME280;66426;51.454;7.266;2022-12-31T01:42:25;98934.22;;;12.16;86.06
77360;BME280;66426;51.454;7.266;2022-12-31T01:43:42;98934.13;;;12.28;85.95
77360;BME280;66426;51.454;7.266;2022-12-31T01:44:49;98922.53;;;12.15;86.79
77360;BME280;66426;51.454;7.266;2022-12-31T01:45:52;98920.31;;;12.09;87.42
77360;BME280;66426;51.454;7.266;2022-12-31T01:46:55;98913.47;;;12.16;86.66
77360;BME280;66426;51.454;7.266;2022-12-31T01:47:59;98917.28;;;12.25;86.45
77360;BME280;66426;51.454;7.266;2022-12-31T01:49:03;98919.38;;;12.21;86.31
77360;BME280;66426;51.454;7.266;2022-12-31T01:50:12;98929.69;;;12.27;86.47
77360;BME280;66426;51.454;7.266;2022-12-31T01:51:15;98917.41;;;12.23;86.89
77360;BME280;66426;51.454;7.266;2022-12-31T01:52:19;98910.13;;;12.13;87.47
77360;BME280;66426;51.454;7.266;2022-12-31T01:53:20;98919.63;;;12.18;86.95
77360;BME280;66426;51.454;7.266;2022-12-31T01:54:24;98924.63;;;12.12;87.66
77360;BME280;66426;51.454;7.266;2022-12-31T01:55:29;98910.78;;;12.27;86.94
77360;BME280;66426;51.454;7.266;2022-12-31T01:56:33;98916.31;;;12.26;87.20
77360;BME280;66426;51.454;7.266;2022-12-31T01:57:35;98910.53;;;12.19;87.42
77360;BME280;66426;51.454;7.266;2022-12-31T01:58:39;98913.81;;;12.12;87.91
77360;BME280;66426;51.454;7.266;2022-12-31T01:59:42;98915.41;;;12.14;87.78
77360;BME280;66426;51.454;7.266;2022-12-31T02:00:44;98911.28;;;12.21;87.30
77360;BME280;66426;51.454;7.266;2022-12-31T02:01:45;98911.72;;;12.15;87.43
77360;BME280;66426;51.454;7.266;2022-12-31T02:02:47;98906.00;;;12.31;86.79
77360;BME280;66426;51.454;7.266;2022-12-31T02:03:50;98900.25;;;12.36;86.96
77360;BME280;66426;51.454;7.266;2022-12-31T02:04:54;98898.41;;;12.36;86.70
77360;BME280;66426;51.454;7.266;2022-12-31T02:06:02;98893.63;;;12.40;86.73
77360;BME280;66426;51.454;7.266;2022-12-31T02:07:06;98907.50;;;12.46;85.93
77360;BME280;66426;51.454;7.266;2022-12-31T02:08:07;98899.88;;;12.40;85.79
77360;BME280;66426;51.454;7.266;2022-12-31T02:09:10;98906.50;;;12.36;86.63
77360;BME280;66426;51.454;7.266;2022-12-31T02:10:12;98916.81;;;12.42;86.83
77360;BME280;66426;51.454;7.266;2022-12-31T02:11:20;98912.03;;;12.35;86.71
77360;BME280;66426;51.454;7.266;2022-12-31T02:12:22;98911.91;;;12.47;85.89
77360;BME280;66426;51.454;7.266;2022-12-31T02:13:23;98911.31;;;12.44;86.56
77360;BME280;66426;51.454;7.266;2022-12-31T02:14:27;98913.78;;;12.47;86.11
77360;BME280;66426;51.454;7.266;2022-12-31T02:15:37;98921.13;;;12.45;86.46
77360;BME280;66426;51.454;7.266;2022-12-31T02:16:44;98920.78;;;12.49;86.10
77360;BME280;66426;51.454;7.266;2022-12-31T02:17:53;98924.81;;;12.55;85.89
77360;BME280;66426;51.454;7.266;2022-12-31T02:19:06;98913.41;;;12.51;85.78
77360;BME280;66426;51.454;7.266;2022-12-31T02:20:33;98939.94;;;12.46;86.13
77360;BME280;66426;51.454;7.266;2022-12-31T02:21:46;98934.28;;;12.49;86.37
77360;BME280;66426;51.454;7.266;2022-12-31T02:24:37;98924.59;;;12.58;85.82
77360;BME280;66426;51.454;7.266;2022-12-31T02:25:51;98925.97;;;12.86;84.23
77360;BME280;66426;51.454;7.266;2022-12-31T02:27:00;98926.09;;;12.85;84.14
77360;BME280;66426;51.454;7.266;2022-12-31T02:28:15;98927.31;;;12.69;84.90
77360;BME280;66426;51.454;7.266;2022-12-31T02:31:00;98924.13;;;12.76;84.44
77360;BME280;66426;51.454;7.266;2022-12-31T02:32:09;98914.53;;;12.83;83.91
77360;BME280;66426;51.454;7.266;2022-12-31T02:33:16;98910.25;;;12.91;83.38
77360;BME280;66426;51.454;7.266;2022-12-31T02:34:26;98924.00;;;12.88;83.71
77360;BME280;66426;51.454;7.266;2022-12-31T02:35:32;98899.91;;;12.85;83.69
77360;BME280;66426;51.454;7.266;2022-12-31T02:36:39;98903.13;;;13.13;82.49
77360;BME280;66426;51.454;7.266;2022-12-31T02:37:44;98895.84;;;13.02;82.43
77360;BME280;66426;51.454;7.266;2022-12-31T02:38:48;98903.34;;;13.10;82.24
77360;BME280;66426;51.454;7.266;2022-12-31T02:39:50;98904.81;;;13.14;81.74
77360;BME280;66426;51.454;7.266;2022-12-31T02:40:51;98900.53;;;13.11;81.66
77360;BME280;66426;51.454;7.266;2022-12-31T02:41:52;98928.19;;;13.04;82.86
77360;BME280;66426;51.454;7.266;2022-12-31T02:42:53;98912.19;;;13.12;81.92
77360;BME280;66426;51.454;7.266;2022-12-31T02:43:54;98907.41;;;13.15;81.66
77360;BME280;66426;51.454;7.266;2022-12-31T02:44:55;98909.38;;;13.13;81.73
77360;BME280;66426;51.454;7.266;2022-12-31T02:46:02;98902.97;;;13.14;81.80
77360;BME280;66426;51.454;7.266;2022-12-31T02:47:19;98904.78;;;13.25;81.67
77360;BME280;66426;51.454;7.266;2022-12-31T02:48:36;98907.00;;;13.20;81.57
77360;BME280;66426;51.454;7.266;2022-12-31T02:49:47;98898.69;;;13.01;82.75
77360;BME280;66426;51.454;7.266;2022-12-31T02:51:01;98897.81;;;13.00;83.23
77360;BME280;66426;51.454;7.266;2022-12-31T02:52:16;98904.59;;;13.06;82.78
77360;BME280;66426;51.454;7.266;2022-12-31T02:53:31;98917.13;;;12.95;83.33
77360;BME280;66426;51.454;7.266;2022-12-31T02:54:43;98902.88;;;12.93;83.52
77360;BME280;66426;51.454;7.266;2022-12-31T02:55:53;98896.97;;;13.00;83.66
77360;BME280;66426;51.454;7.266;2022-12-31T02:57:04;98903.38;;;12.99;82.87
77360;BME280;66426;51.454;7.266;2022-12-31T02:58:10;98920.44;;;12.99;83.44
77360;BME280;66426;51.454;7.266;2022-12-31T02:59:17;98905.31;;;13.08;82.46
77360;BME280;66426;51.454;7.266;2022-12-31T03:00:43;98911.59;;;13.08;82.61
77360;BME280;66426;51.454;7.266;2022-12-31T03:02:09;98911.72;;;13.29;81.86
77360;BME280;66426;51.454;7.266;2022-12-31T03:03:14;98911.72;;;13.29;82.14
77360;BME280;66426;51.454;7.266;2022-12-31T03:04:16;98900.41;;;13.13;82.67
77360;BME280;66426;51.454;7.266;2022-12-31T03:05:36;98903.59;;;13.07;83.13
77360;BME280;66426;51.454;7.266;2022-12-31T03:06:39;98924.13;;;13.09;82.87
77360;BME280;66426;51.454;7.266;2022-12-31T03:07:42;98922.41;;;13.08;82.91
77360;BME280;66426;51.454;7.266;2022-12-31T03:08:43;98913.19;;;13.11;83.06
77360;BME280;66426;51.454;7.266;2022-12-31T03:10:08;98932.72;;;13.14;82.51
77360;BME280;66426;51.454;7.266;2022-12-31T03:11:10;98922.38;;;13.20;nan
77360;BME280;66426;51.454;7.266;2022-12-31T03:12:32;98925.72;;;13.01;83.84
77360;BME280;66426;51.454;7.266;2022-12-31T03:13:46;98931.25;;;12.99;84.14
77360;BME280;66426;51.454;7.266;2022-12-31T03:14:47;98941.69;;;13.04;83.38
77360;BME280;66426;51.454;7.266;2022-12-31T03:15:48;98942.06;;;12.99;83.84
77360;BME280;66426;51.454;7.266;2022-12-31T03:16:49;98936.28;;;13.04;83.57
77360;BME280;66426;51.454;7.266;2022-12-31T03:17:54;98937.41;;;13.01;83.96
77360;BME280;66426;51.454;7.266;2022-12-31T03:18:55;98925.47;;;13.15;83.59
77360;BME280;66426;51.454;7.266;2022-12-31T03:20:14;98946.00;;;13.06;83.53
77360;BME280;66426;51.454;7.266;2022-12-31T03:21:34;98931.13;;;13.12;82.70
77360;BME280;66426;51.454;7.266;2022-12-31T03:22:53;98943.91;;;13.10;83.25
77360;BME280;66426;51.454;7.266;2022-12-31T03:23:54;98925.22;;;13.18;83.32
77360;BME280;66426;51.454;7.266;2022-12-31T03:25:16;98935.69;;;13.11;83.34
77360;BME280;66426;51.454;7.266;2022-12-31T03:26:33;98939.75;;;13.06;83.72
77360;BME280;66426;51.454;7.266;2022-12-31T03:27:35;98962.09;;;12.97;84.44
77360;BME280;66426;51.454;7.266;2022-12-31T03:28:37;98945.63;;;13.11;83.72
77360;BME280;66426;51.454;7.266;2022-12-31T03:29:39;98949.31;;;12.99;85.20
77360;BME280;66426;51.454;7.266;2022-12-31T03:30:42;98944.16;;;12.95;84.76
77360;BME280;66426;51.454;7.266;2022-12-31T03:31:44;98957.78;;;12.94;85.33
77360;BME280;66426;51.454;7.266;2022-12-31T03:32:46;98951.88;;;13.00;84.98
77360;BME280;66426;51.454;7.266;2022-12-31T03:33:48;98946.47;;;13.00;84.80
77360;BME280;66426;51.454;7.266;2022-12-31T03:34:49;98958.66;;;13.17;83.98
77360;BME280;66426;51.454;7.266;2022-12-31T03:35:51;98953.25;;;13.06;84.37
77360;BME280;66426;51.454;7.266;2022-12-31T03:36:52;98947.72;;;13.07;84.47
77360;BME280;66426;51.454;7.266;2022-12-31T03:37:53;98947.59;;;13.09;84.67
77360;BME280;66426;51.454;7.266;2022-12-31T03:38:54;98949.19;;;13.11;84.68
77360;BME280;66426;51.454;7.266;2022-12-31T03:39:55;98933.72;;;13.13;84.07
77360;BME280;66426;51.454;7.266;2022-12-31T03:40:56;98954.97;;;13.18;84.12
77360;BME280;66426;51.454;7.266;2022-12-31T03:41:57;98946.59;;;13.10;84.25
77360;BME280;66426;51.454;7.266;2022-12-31T03:42:58;98944.03;;;13.08;84.57
77360;BME280;66426;51.454;7.266;2022-12-31T03:43:59;98939.09;;;13.25;83.06
77360;BME280;66426;51.454;7.266;2022-12-31T03:45:00;98953.13;;;13.19;84.37
77360;BME280;66426;51.454;7.266;2022-12-31T03:46:01;98937.88;;;13.40;82.54
77360;BME280;66426;51.454;7.266;2022-12-31T03:47:02;98940.59;;;13.29;83.07
77360;BME280;66426;51.454;7.266;2022-12-31T03:48:05;98927.81;;;13.31;83.04
77360;BME280;66426;51.454;7.266;2022-12-31T03:49:07;98950.75;;;13.48;81.81
77360;BME280;66426;51.454;7.266;2022-12-31T03:50:10;98940.09;;;13.46;81.94
77360;BME280;66426;51.454;7.266;2022-12-31T03:51:11;98948.94;;;13.37;82.87
77360;BME280;66426;51.454;7.266;2022-12-31T03:52:13;98943.84;;;13.66;80.89
77360;BME280;66426;51.454;7.266;2022-12-31T03:53:14;98934.31;;;13.51;81.63
77360;BME280;66426;51.454;7.266;2022-12-31T03:54:15;98946.97;;;13.39;82.47
77360;BME280;66426;51.454;7.266;2022-12-31T03:55:16;98945.25;;;13.49;81.42
77360;BME280;66426;51.454;7.266;2022-12-31T03:56:17;98954.59;;;13.56;81.52
77360;BME280;66426;51.454;7.266;2022-12-31T03:57:18;98933.78;;;13.57;81.62
77360;BME280;66426;51.454;7.266;2022-12-31T03:58:19;98962.31;;;13.61;80.97
77360;BME280;66426;51.454;7.266;2022-12-31T03:59:20;98952.09;;;13.65;80.90
77360;BME280;66426;51.454;7.266;2022-12-31T04:00:21;98953.41;;;13.70;80.74
77360;BME280;66426;51.454;7.266;2022-12-31T04:01:22;98967.75;;;13.61;81.31
77360;BME280;66426;51.454;7.266;2022-12-31T04:02:24;98952.03;;;13.87;79.71
77360;BME280;66426;51.454;7.266;2022-12-31T04:03:25;98960.19;;;13.76;80.67
77360;BME280;66426;51.454;7.266;2022-12-31T04:04:27;98955.91;;;13.73;80.17
77360;BME280;66426;51.454;7.266;2022-12-31T04:05:28;98955.94;;;13.94;79.05
77360;BME280;66426;51.454;7.266;2022-12-31T04:06:29;98942.84;;;13.78;80.22
77360;BME280;66426;51.454;7.266;2022-12-31T04:07:30;98946.75;;;13.86;79.63
77360;BME280;66426;51.454;7.266;2022-12-31T04:08:31;98953.41;;;13.70;80.31
77360;BME280;66426;51.454;7.266;2022-12-31T04:09:31;98942.00;;;13.78;79.68
77360;BME280;66426;51.454;7.266;2022-12-31T04:10:32;98959.03;;;13.90;79.33
77360;BME280;66426;51.454;7.266;2022-12-31T04:11:33;98937.47;;;13.99;78.64
77360;BME280;66426;51.454;7.266;2022-12-31T04:12:35;98941.94;;;13.89;80.00
77360;BME280;66426;51.454;7.266;2022-12-31T04:13:36;98969.38;;;13.96;79.15
77360;BME280;66426;51.454;7.266;2022-12-31T04:14:36;98945.94;;;14.06;78.34
77360;BME280;66426;51.454;7.266;2022-12-31T04:15:37;98960.78;;;13.91;79.37
77360;BME280;66426;51.454;7.266;2022-12-31T04:16:38;98953.97;;;13.96;78.71
77360;BME280;66426;51.454;7.266;2022-12-31T04:17:39;98957.59;;;13.86;79.43
77360;BME280;66426;51.454;7.266;2022-12-31T04:18:40;98944.28;;;13.82;80.24
77360;BME280;66426;51.454;7.266;2022-12-31T04:19:42;98934.66;;;13.90;79.73
77360;BME280;66426;51.454;7.266;2022-12-31T04:20:43;98946.13;;;13.93;79.35
77360;BME280;66426;51.454;7.266;2022-12-31T04:21:44;98941.84;;;14.12;77.82
77360;BME280;66426;51.454;7.266;2022-12-31T04:22:45;98949.38;;;14.08;78.05
77360;BME280;66426;51.454;7.266;2022-12-31T04:23:46;98954.44;;;14.01;78.40
77360;BME280;66426;51.454;7.266;2022-12-31T04:24:46;98934.44;;;14.14;77.88
77360;BME280;66426;51.454;7.266;2022-12-31T04:25:47;98962.09;;;13.96;78.79
77360;BME280;66426;51.454;7.266;2022-12-31T04:26:48;98941.91;;;14.00;78.41
77360;BME280;66426;51.454;7.266;2022-12-31T04:27:49;98957.31;;;13.89;79.70
77360;BME280;66426;51.454;7.266;2022-12-31T04:28:50;98957.50;;;14.08;78.44
77360;BME280;66426;51.454;7.266;2022-12-31T04:29:51;98950.50;;;14.06;77.93
77360;BME280;66426;51.454;7.266;2022-12-31T04:30:52;98945.66;;;14.09;77.97
77360;BME280;66426;51.454;7.266;2022-12-31T04:31:53;98945.09;;;14.06;78.19
77360;BME280;66426;51.454;7.266;2022-12-31T04:32:54;98945.41;;;14.12;78.44
77360;BME280;66426;51.454;7.266;2022-12-31T04:33:54;98947.44;;;13.99;78.86
77360;BME280;66426;51.454;7.266;2022-12-31T04:34:57;98939.03;;;14.02;78.59
77360;BME280;66426;51.454;7.266;2022-12-31T04:35:59;98950.03;;;14.00;79.06
77360;BME280;66426;51.454;7.266;2022-12-31T04:37:00;98987.47;;;13.95;79.33
77360;BME280;66426;51.454;7.266;2022-12-31T04:38:01;98940.69;;;13.93;79.82
77360;BME280;66426;51.454;7.266;2022-12-31T04:39:02;98975.28;;;13.90;79.94
77360;BME280;66426;51.454;7.266;2022-12-31T04:40:04;98949.63;;;13.73;81.32
77360;BME280;66426;51.454;7.266;2022-12-31T04:41:05;98972.00;;;13.75;81.18
77360;BME280;66426;51.454;7.266;2022-12-31T04:42:18;98957.13;;;13.80;80.09
77360;BME280;66426;51.454;7.266;2022-12-31T04:43:19;98957.69;;;13.84;80.64
77360;BME280;66426;51.454;7.266;2022-12-31T04:44:20;98951.69;;;13.80;80.48
77360;BME280;66426;51.454;7.266;2022-12-31T04:45:21;98955.75;;;13.75;80.51
77360;BME280;66426;51.454;7.266;2022-12-31T04:46:24;98956.22;;;13.80;80.01
77360;BME280;66426;51.454;7.266;2022-12-31T04:47:25;98963.22;;;13.94;79.48
77360;BME280;66426;51.454;7.266;2022-12-31T04:48:26;98961.72;;;14.01;78.69
77360;BME280;66426;51.454;7.266;2022-12-31T04:49:27;98964.06;;;13.94;79.04
77360;BME280;66426;51.454;7.266;2022-12-31T04:50:29;98957.41;;;13.98;78.84
77360;BME280;66426;51.454;7.266;2022-12-31T04:51:30;98974.94;;;13.83;79.51
77360;BME280;66426;51.454;7.266;2022-12-31T04:52:31;98962.25;;;13.84;79.60
77360;BME280;66426;51.454;7.266;2022-12-31T04:53:32;98974.94;;;13.83;80.18
77360;BME280;66426;51.454;7.266;2022-12-31T04:54:33;98970.72;;;13.90;79.12
77360;BME280;66426;51.454;7.266;2022-12-31T04:55:34;98988.59;;;13.93;79.12
77360;BME280;66426;51.454;7.266;2022-12-31T04:56:35;98985.56;;;14.07;78.24
77360;BME280;66426;51.454;7.266;2022-12-31T04:57:36;98985.81;;;14.04;78.17
77360;BME280;66426;51.454;7.266;2022-12-31T04:58:37;98980.88;;;14.09;77.87
77360;BME280;66426;51.454;7.266;2022-12-31T04:59:38;98973.38;;;14.13;77.64
77360;BME280;66426;51.454;7.266;2022-12-31T05:00:39;98974.97;;;14.15;77.58
77360;BME280;66426;51.454;7.266;2022-12-31T05:01:40;98969.31;;;14.07;77.45
77360;BME280;66426;51.454;7.266;2022-12-31T05:02:41;98981.09;;;14.17;77.26
77360;BME280;66426;51.454;7.266;2022-12-31T05:03:42;98984.31;;;14.11;77.66
77360;BME280;66426;51.454;7.266;2022-12-31T05:04:43;98981.34;;;14.14;77.50
77360;BME280;66426;51.454;7.266;2022-12-31T05:05:45;98988.09;;;14.20;76.93
77360;BME280;66426;51.454;7.266;2022-12-31T05:06:46;98986.97;;;14.22;76.67
77360;BME280;66426;51.454;7.266;2022-12-31T05:07:47;98984.53;;;14.19;76.65
77360;BME280;66426;51.454;7.266;2022-12-31T05:08:49;98982.19;;;14.15;77.10
77360;BME280;66426;51.454;7.266;2022-12-31T05:09:49;98977.41;;;14.18;76.73
77360;BME280;66426;51.454;7.266;2022-12-31T05:10:50;98992.63;;;14.31;76.06
77360;BME280;66426;51.454;7.266;2022-12-31T05:11:51;98981.16;;;14.27;76.52
77360;BME280;66426;51.454;7.266;2022-12-31T05:12:52;98976.75;;;14.26;76.32
77360;BME280;66426;51.454;7.266;2022-12-31T05:13:53;98965.06;;;14.26;76.46
77360;BME280;66426;51.454;7.266;2022-12-31T05:14:54;98976.75;;;14.26;76.31
77360;BME280;66426;51.454;7.266;2022-12-31T05:15:55;98965.09;;;14.14;76.68
77360;BME280;66426;51.454;7.266;2022-12-31T05:16:56;98987.94;;;14.33;75.80
77360;BME280;66426;51.454;7.266;2022-12-31T05:17:58;98979.28;;;14.39;75.52
77360;BME280;66426;51.454;7.266;2022-12-31T05:18:59;98979.66;;;14.34;76.08
77360;BME280;66426;51.454;7.266;2022-12-31T05:20:00;98962.66;;;14.32;75.77
77360;BME280;66426;51.454;7.266;2022-12-31T05:21:02;98970.28;;;14.38;75.45
77360;BME280;66426;51.454;7.266;2022-12-31T05:22:03;98961.09;;;14.30;76.04
77360;BME280;66426;51.454;7.266;2022-12-31T05:23:23;98963.19;;;14.26;76.24
77360;BME280;66426;51.454;7.266;2022-12-31T05:24:23;98964.78;;;14.29;75.78
77360;BME280;66426;51.454;7.266;2022-12-31T05:25:24;98984.34;;;14.32;75.58
77360;BME280;66426;51.454;7.266;2022-12-31T05:26:25;98971.34;;;14.47;74.70
77360;BME280;66426;51.454;7.266;2022-12-31T05:27:28;98964.94;;;14.48;74.75
77360;BME280;66426;51.454;7.266;2022-12-31T05:28:30;98966.19;;;14.65;74.06
77360;BME280;66426;51.454;7.266;2022-12-31T05:29:32;98980.47;;;14.46;75.59
77360;BME280;66426;51.454;7.266;2022-12-31T05:30:33;98967.38;;;14.51;74.83
77360;BME280;66426;51.454;7.266;2022-12-31T05:31:34;98962.28;;;14.37;75.51
77360;BME280;66426;51.454;7.266;2022-12-31T05:32:35;98978.88;;;14.43;74.82
77360;BME280;66426;51.454;7.266;2022-12-31T05:33:35;98983.91;;;14.48;74.76
77360;BME280;66426;51.454;7.266;2022-12-31T05:34:36;98991.53;;;14.54;74.50
77360;BME280;66426;51.454;7.266;2022-12-31T05:35:37;98968.78;;;14.45;74.96
77360;BME280;66426;51.454;7.266;2022-12-31T05:36:40;98971.78;;;14.63;74.05
77360;BME280;66426;51.454;7.266;2022-12-31T05:37:40;98981.16;;;14.59;73.90
77360;BME280;66426;51.454;7.266;2022-12-31T05:38:41;98977.38;;;14.72;73.83